Time;durP1;ratioP1;P1;durP2;ratioP2;P2;SDS_P1;SDS_P2;PMS_P1;PMS_P2;Temp;Humidity;BMP_temperature;BMP_pressure;BME280_temperature;BME280_humidity;BME280_pressure;Samples;Min_cycle;Max_cycle;Signal;HPM_P1;HPM_P2
2021/04/21 00:01:24;;;;;;;4.03;2.55;;;;;;;14.96;44.63;101491.94;144994;627;5002;-74
2021/04/21 00:03:53;;;;;;;3.78;2.20;;;;;;;14.88;45.17;101499.59;144994;593;5002;-73
2021/04/21 00:06:20;;;;;;;2.80;1.90;;;;;;;14.84;44.92;101503.00;144994;564;5002;-75
2021/04/21 00:08:48;;;;;;;1.87;1.65;;;;;;;14.84;45.14;101510.84;144994;593;5002;-72
2021/04/21 00:11:16;;;;;;;2.80;1.73;;;;;;;14.80;44.94;101514.19;144994;647;5002;-73
2021/04/21 00:13:48;;;;;;;2.47;1.95;;;;;;;14.70;45.17;101512.22;144994;629;5002;-73
2021/04/21 00:16:16;;;;;;;2.00;1.60;;;;;;;14.68;45.06;101516.50;144994;637;5002;-73
2021/04/21 00:18:45;;;;;;;4.03;1.83;;;;;;;14.66;44.93;101510.34;144994;587;5003;-73
2021/04/21 00:21:13;;;;;;;15.63;2.12;;;;;;;14.51;45.25;101510.81;144994;587;5002;-73
2021/04/21 00:23:41;;;;;;;2.97;1.37;;;;;;;14.37;45.69;101505.22;144994;643;5002;-73
2021/04/21 00:26:15;;;;;;;2.65;1.50;;;;;;;14.21;45.80;101509.16;144994;593;5003;-74
2021/04/21 00:28:42;;;;;;;2.20;1.60;;;;;;;14.08;46.43;101509.66;144994;789;5002;-73
2021/04/21 00:31:11;;;;;;;3.05;1.30;;;;;;;14.08;46.24;101510.53;144994;585;5002;-73
2021/04/21 00:33:40;;;;;;;2.12;1.77;;;;;;;14.02;46.68;101507.75;144994;807;5002;-73
2021/04/21 00:36:10;;;;;;;1.87;1.45;;;;;;;14.11;46.63;101502.78;144994;566;5002;-73
2021/04/21 00:38:38;;;;;;;2.42;1.77;;;;;;;14.14;46.16;101508.09;144994;754;5002;-74
2021/04/21 00:41:26;;;;;;;1.62;1.50;;;;;;;14.13;46.07;101506.31;144994;610;5002;-74
2021/04/21 00:44:19;;;;;;;3.25;1.70;;;;;;;14.15;46.31;101507.22;144994;626;4566;-74
2021/04/21 00:46:52;;;;;;;3.03;1.80;;;;;;;14.36;45.47;101507.78;144993;586;4570;-74
2021/04/21 00:49:45;;;;;;;3.53;2.15;;;;;;;14.44;45.45;101503.66;144994;577;4572;-74
2021/04/21 00:52:18;;;;;;;4.07;1.75;;;;;;;14.46;45.61;101496.72;144993;591;6000;-74
2021/04/21 00:55:06;;;;;;;1.70;1.23;;;;;;;14.36;45.50;101502.56;144992;575;6002;-73
2021/04/21 00:57:44;;;;;;;1.70;1.37;;;;;;;14.43;45.14;101494.06;144992;614;6002;-73
2021/04/21 01:00:25;;;;;;;2.42;1.67;;;;;;;14.45;45.25;101498.47;144992;588;6002;-73
2021/04/21 01:03:11;;;;;;;2.30;1.45;;;;;;;14.40;45.46;101500.06;144992;633;6002;-72
2021/04/21 01:05:42;;;;;;;3.53;1.60;;;;;;;14.45;45.19;101508.91;144992;564;6002;-73
2021/04/21 01:08:13;;;;;;;2.95;1.80;;;;;;;14.33;45.38;101506.88;144992;626;6002;-73
2021/04/21 01:10:48;;;;;;;2.58;1.70;;;;;;;14.29;45.55;101511.97;144992;591;6003;-73
2021/04/21 01:13:15;;;;;;;2.33;1.80;;;;;;;14.30;46.01;101509.41;144992;578;6002;-74
2021/04/21 01:15:57;;;;;;;2.15;1.90;;;;;;;14.39;45.69;101508.75;144992;693;6002;-74
2021/04/21 01:18:27;;;;;;;2.72;1.80;;;;;;;14.46;45.61;101508.09;144992;638;6003;-72
2021/04/21 01:21:03;;;;;;;2.95;1.90;;;;;;;14.52;45.13;101507.34;144992;638;6002;-72
2021/04/21 01:24:05;;;;;;;2.47;2.03;;;;;;;14.38;45.77;101507.00;144992;732;6002;-72
2021/04/21 01:27:13;;;;;;;2.28;1.40;;;;;;;14.19;45.88;101503.00;144992;629;6004;-72
2021/04/21 01:29:43;;;;;;;2.55;2.15;;;;;;;14.30;45.15;101500.66;144992;616;6002;-75
2021/04/21 01:32:31;;;;;;;2.33;1.80;;;;;;;14.31;45.32;101500.69;144992;596;6002;-75
2021/04/21 01:34:58;;;;;;;4.12;1.42;;;;;;;14.08;45.58;101500.09;144992;573;6004;-72
2021/04/21 01:37:31;;;;;;;4.03;1.60;;;;;;;14.18;45.75;101508.19;144991;575;6000;-73
2021/04/21 01:40:07;;;;;;;3.10;2.00;;;;;;;14.37;45.20;101513.06;144992;611;6002;-73
2021/04/21 01:42:37;;;;;;;3.78;2.10;;;;;;;14.37;45.49;101510.44;144991;590;6002;-73
2021/04/21 01:45:05;;;;;;;5.78;2.47;;;;;;;14.46;45.09;101525.47;144992;590;6002;-73
2021/04/21 01:47:32;;;;;;;3.87;2.33;;;;;;;14.56;44.94;101524.00;144992;580;6002;-73
2021/04/21 01:50:02;;;;;;;3.60;2.80;;;;;;;14.66;45.28;101524.28;144992;615;6002;-73
2021/04/21 01:53:08;;;;;;;4.00;2.60;;;;;;;14.75;44.84;101526.28;144992;571;6002;-73
2021/04/21 01:55:55;;;;;;;4.62;2.45;;;;;;;14.77;44.75;101523.69;144992;587;6002;-82
2021/04/21 01:59:00;;;;;;;7.53;2.90;;;;;;;14.67;45.39;101517.34;144992;578;6002;-72
2021/04/21 02:01:59;;;;;;;6.32;2.62;;;;;;;14.67;44.94;101519.97;144992;587;6002;-73
2021/04/21 02:04:53;;;;;;;4.20;2.90;;;;;;;14.69;44.99;101524.38;144992;609;6004;-73
2021/04/21 02:08:19;;;;;;;4.55;2.80;;;;;;;14.82;45.08;101529.91;144992;638;6002;-72
2021/04/21 02:11:18;;;;;;;4.97;2.90;;;;;;;14.86;44.76;101526.56;144992;572;6005;-73
2021/04/21 02:14:20;;;;;;;5.20;2.70;;;;;;;14.85;44.87;101523.03;144992;620;6002;-72
2021/04/21 02:17:09;;;;;;;7.72;3.28;;;;;;;14.89;44.87;101524.03;144992;610;6004;-74
2021/04/21 02:19:56;;;;;;;5.37;2.70;;;;;;;14.72;45.18;101523.59;144992;579;6004;-74
2021/04/21 02:22:49;;;;;;;5.78;3.05;;;;;;;14.50;45.74;101516.88;144992;611;6004;-73
2021/04/21 02:25:41;;;;;;;5.20;3.10;;;;;;;14.56;45.50;101526.62;144992;568;6005;-74
2021/04/21 02:28:40;;;;;;;5.93;3.15;;;;;;;14.59;45.43;101529.31;144992;719;6004;-72
2021/04/21 02:31:35;;;;;;;8.98;3.35;;;;;;;14.58;45.44;101533.62;144992;563;6002;-72
2021/04/21 02:34:30;;;;;;;5.85;3.22;;;;;;;14.45;45.95;101535.03;144992;597;6002;-73
2021/04/21 02:37:26;;;;;;;5.62;3.33;;;;;;;14.46;45.69;101531.59;144992;583;6004;-74
2021/04/21 02:40:24;;;;;;;5.47;3.25;;;;;;;14.40;45.73;101535.78;144992;594;6002;-72
2021/04/21 02:43:01;;;;;;;6.82;3.50;;;;;;;14.36;46.03;101537.41;144992;613;6004;-71
2021/04/21 02:46:10;;;;;;;7.43;3.72;;;;;;;14.30;45.99;101535.53;144992;567;6004;-73
2021/04/21 02:49:30;;;;;;;8.00;3.37;;;;;;;14.23;46.23;101530.06;144992;627;6004;-73
2021/04/21 02:52:30;;;;;;;5.65;3.55;;;;;;;14.15;46.14;101538.56;144992;753;6002;-73
2021/04/21 02:55:31;;;;;;;7.10;3.58;;;;;;;14.11;46.32;101533.22;144992;600;6004;-73
2021/04/21 02:58:58;;;;;;;9.25;3.50;;;;;;;14.12;46.26;101529.78;144991;608;6002;-73
2021/04/21 03:01:48;;;;;;;6.72;3.78;;;;;;;14.11;46.20;101531.50;144992;645;6002;-73
2021/04/21 03:04:53;;;;;;;5.53;3.37;;;;;;;14.14;46.10;101538.53;144992;579;6002;-73
2021/04/21 03:07:30;;;;;;;7.28;3.65;;;;;;;14.11;46.17;101533.22;144992;571;6004;-73
2021/04/21 03:10:11;;;;;;;6.60;3.62;;;;;;;14.11;46.10;101536.72;144992;610;6005;-72
2021/04/21 03:12:42;;;;;;;7.72;3.12;;;;;;;14.14;46.13;101544.66;144992;566;6004;-73
2021/04/21 03:15:13;;;;;;;6.18;3.12;;;;;;;14.14;45.95;101547.25;144992;612;6004;-72
2021/04/21 03:17:42;;;;;;;6.03;3.17;;;;;;;14.23;46.13;101550.97;144992;611;6005;-72
2021/04/21 03:20:18;;;;;;;4.78;2.80;;;;;;;14.27;46.10;101552.81;144992;646;6004;-73
2021/04/21 03:22:54;;;;;;;6.60;3.17;;;;;;;14.32;46.00;101543.41;144992;603;6004;-73
2021/04/21 03:25:35;;;;;;;4.62;3.25;;;;;;;14.29;46.01;101552.03;144991;579;6000;-73
2021/04/21 03:28:09;;;;;;;5.60;3.55;;;;;;;14.14;46.07;101551.56;144992;567;6002;-74
2021/04/21 03:30:37;;;;;;;6.40;4.10;;;;;;;14.10;46.40;101553.22;144992;571;6002;-73
2021/04/21 03:33:18;;;;;;;9.80;4.75;;;;;;;14.15;46.20;101556.84;144992;616;6003;-73
2021/04/21 03:35:50;;;;;;;7.68;5.00;;;;;;;14.20;46.22;101563.94;144992;581;6002;-71
2021/04/21 03:38:17;;;;;;;7.00;4.32;;;;;;;14.00;46.56;101560.75;144992;637;6002;-73
2021/04/21 03:40:44;;;;;;;6.87;4.22;;;;;;;14.04;46.24;101563.50;144992;617;6002;-72
2021/04/21 03:43:11;;;;;;;10.45;4.22;;;;;;;14.10;46.77;101570.62;144992;579;6002;-72
2021/04/21 03:45:40;;;;;;;7.47;3.95;;;;;;;14.16;46.43;101568.19;144992;625;6002;-73
2021/04/21 03:48:09;;;;;;;5.97;3.50;;;;;;;14.18;46.54;101576.94;144992;591;6002;-75
2021/04/21 03:50:38;;;;;;;7.40;3.75;;;;;;;14.14;46.49;101572.47;144992;577;6002;-73
2021/04/21 03:53:07;;;;;;;8.68;3.62;;;;;;;14.07;46.66;101578.38;144992;585;6002;-74
2021/04/21 03:55:36;;;;;;;6.28;3.15;;;;;;;14.04;46.95;101573.94;144992;564;6002;-72
2021/04/21 03:58:11;;;;;;;5.60;2.60;;;;;;;14.06;46.69;101585.31;144992;574;6002;-72
2021/04/21 04:00:41;;;;;;;;;;;;;;;14.07;46.66;101587.06;144997;913;6002;-72
2021/04/21 04:03:27;;;;;;;8.15;2.78;;;;;;;14.05;46.60;101590.50;144997;619;6002;-73
2021/04/21 04:06:46;;;;;;;8.50;3.10;;;;;;;13.88;46.75;101592.59;144992;566;6002;-73
2021/04/21 04:09:14;;;;;;;6.62;3.28;;;;;;;13.86;47.11;101589.06;144992;565;6002;-73
2021/04/21 04:11:50;;;;;;;6.00;3.20;;;;;;;13.90;46.72;101607.47;144992;595;6002;-74
2021/04/21 04:14:30;;;;;;;5.90;3.35;;;;;;;13.96;47.00;101601.53;144992;602;6002;-73
2021/04/21 04:17:01;;;;;;;5.20;3.30;;;;;;;14.01;46.95;101601.69;144992;596;6002;-73
2021/04/21 04:19:32;;;;;;;8.63;3.75;;;;;;;14.06;46.39;101608.81;144992;597;6002;-73
2021/04/21 04:22:06;;;;;;;6.55;3.25;;;;;;;14.09;46.55;101606.31;144992;589;6002;-73
2021/04/21 04:24:44;;;;;;;7.90;3.80;;;;;;;14.06;46.59;101605.31;144992;583;6003;-74
2021/04/21 04:27:22;;;;;;;5.90;3.40;;;;;;;13.90;46.50;101606.56;144992;618;6002;-75
2021/04/21 04:29:50;;;;;;;8.10;4.18;;;;;;;14.06;46.65;101611.44;144992;610;6002;-74
2021/04/21 04:32:21;;;;;;;9.82;3.80;;;;;;;14.04;46.41;101610.47;144992;566;6002;-74
2021/04/21 04:34:54;;;;;;;8.23;3.50;;;;;;;14.15;46.43;101601.22;144992;615;6002;-75
2021/04/21 04:37:25;;;;;;;6.55;3.70;;;;;;;14.27;46.28;101602.44;144992;595;6002;-73
2021/04/21 04:39:54;;;;;;;8.98;3.42;;;;;;;14.32;46.30;101606.94;144992;574;6002;-73
2021/04/21 04:42:24;;;;;;;6.60;3.25;;;;;;;14.39;46.43;101601.91;144992;579;6002;-75
2021/04/21 04:44:57;;;;;;;11.45;3.40;;;;;;;14.57;46.22;101611.97;144992;611;6002;-74
2021/04/21 04:47:41;;;;;;;8.02;3.15;;;;;;;14.65;45.97;101611.41;144992;721;6002;-75
2021/04/21 04:50:29;;;;;;;7.72;3.00;;;;;;;14.79;45.30;101611.75;144992;597;6002;-73
2021/04/21 04:52:57;;;;;;;19.50;3.75;;;;;;;14.76;43.85;101614.31;144992;648;6004;-74
2021/04/21 04:55:26;;;;;;;7.65;3.28;;;;;;;14.76;45.41;101619.53;144992;615;6004;-73
2021/04/21 04:57:55;;;;;;;6.50;3.65;;;;;;;14.90;45.33;101619.87;144992;567;6004;-73
2021/04/21 05:00:28;;;;;;;6.47;3.65;;;;;;;14.92;44.97;101619.91;144992;567;6004;-74
2021/04/21 05:03:19;;;;;;;6.07;3.87;;;;;;;14.94;44.33;101615.63;144992;622;6004;-74
2021/04/21 05:05:46;;;;;;;12.23;4.35;;;;;;;15.07;44.73;101622.06;144992;605;6002;-72
2021/04/21 05:08:19;;;;;;;9.85;4.22;;;;;;;15.13;44.59;101624.81;144992;574;6002;-73
2021/04/21 05:11:19;;;;;;;8.60;3.97;;;;;;;15.14;44.12;101631.81;144992;634;6002;-76
2021/04/21 05:13:52;;;;;;;12.43;4.78;;;;;;;15.11;44.33;101631.75;144992;602;6004;-72
2021/04/21 05:17:16;;;;;;;10.07;5.95;;;;;;;15.17;44.65;101629.28;144992;598;6005;-72
2021/04/21 05:20:18;;;;;;;12.48;6.37;;;;;;;15.22;44.60;101632.91;144992;585;6004;-73
2021/04/21 05:23:25;;;;;;;18.50;7.60;;;;;;;15.31;44.56;101640.09;144992;577;6002;-72
2021/04/21 05:26:32;;;;;;;17.48;7.00;;;;;;;15.40;44.43;101635.97;144991;591;6002;-73
2021/04/21 05:29:38;;;;;;;11.90;6.55;;;;;;;15.47;44.72;101630.91;144992;600;6002;-73
2021/04/21 05:32:42;;;;;;;13.98;6.22;;;;;;;15.55;44.73;101642.44;144992;574;6002;-72
2021/04/21 05:36:01;;;;;;;10.73;4.72;;;;;;;15.62;44.40;101635.59;144992;575;6004;-73
2021/04/21 05:39:14;;;;;;;7.37;3.60;;;;;;;15.68;44.36;101626.16;144992;575;6004;-73
2021/04/21 05:42:20;;;;;;;8.60;3.62;;;;;;;15.70;44.72;101628.81;144992;636;6004;-73
2021/04/21 05:45:39;;;;;;;8.75;3.37;;;;;;;15.74;44.91;101631.53;144992;625;6002;-72
2021/04/21 05:48:44;;;;;;;10.55;3.70;;;;;;;15.83;44.66;101632.63;144992;566;6002;-72
2021/04/21 05:51:42;;;;;;;12.98;4.03;;;;;;;15.89;44.65;101633.66;144992;593;6004;-72
2021/04/21 05:54:55;;;;;;;13.25;3.40;;;;;;;15.92;43.64;101632.84;144992;691;6002;-74
2021/04/21 05:58:17;;;;;;;12.32;3.70;;;;;;;15.99;44.43;101637.37;144992;610;6004;-73
2021/04/21 06:01:27;;;;;;;19.65;3.42;;;;;;;16.08;44.45;101626.19;144992;627;6002;-72
2021/04/21 06:03:58;;;;;;;15.07;3.70;;;;;;;16.16;43.02;101632.47;144992;624;6002;-73
2021/04/21 06:06:25;;;;;;;14.15;2.92;;;;;;;16.18;43.01;101635.12;144992;605;6002;-72
2021/04/21 06:08:52;;;;;;;9.65;3.25;;;;;;;16.29;44.12;101631.91;144992;575;6002;-74
2021/04/21 06:11:23;;;;;;;16.15;5.85;;;;;;;16.35;41.67;101630.25;144992;583;6002;-73
2021/04/21 06:14:09;;;;;;;22.20;7.30;;;;;;;16.43;44.04;101633.91;144992;639;6002;-74
2021/04/21 06:16:36;;;;;;;16.95;7.10;;;;;;;16.53;44.51;101634.97;144992;570;6010;-72
2021/04/21 06:19:07;;;;;;;18.75;6.90;;;;;;;16.64;43.85;101634.34;144992;564;6002;-74
2021/04/21 06:21:37;;;;;;;12.85;5.65;;;;;;;16.74;43.84;101638.03;144992;575;6002;-73
2021/04/21 06:24:25;;;;;;;19.75;4.85;;;;;;;16.89;44.13;101634.81;144992;603;6003;-72
2021/04/21 06:26:52;;;;;;;11.65;3.60;;;;;;;17.00;43.33;101637.66;144992;592;6002;-73
2021/04/21 06:29:19;;;;;;;11.12;3.62;;;;;;;17.11;43.23;101649.22;144992;579;6002;-74
2021/04/21 06:31:49;;;;;;;21.35;4.35;;;;;;;17.13;42.01;101652.78;144992;569;6003;-73
2021/04/21 06:34:16;;;;;;;24.85;6.07;;;;;;;17.11;41.68;101645.72;144992;614;6002;-77
2021/04/21 06:36:48;;;;;;;16.80;5.70;;;;;;;17.12;42.85;101647.50;144992;606;6002;-74
2021/04/21 06:39:17;;;;;;;18.00;5.20;;;;;;;17.06;39.43;101647.37;144992;614;6002;-75
2021/04/21 06:41:44;;;;;;;18.25;4.20;;;;;;;17.05;39.00;101651.72;144992;612;6002;-74
2021/04/21 06:44:14;;;;;;;32.45;12.45;;;;;;;17.04;42.45;101669.22;144992;585;6002;-73
2021/04/21 06:46:41;;;;;;;33.05;12.15;;;;;;;17.01;38.95;101653.41;144992;567;6002;-76
2021/04/21 06:49:07;;;;;;;29.98;9.85;;;;;;;17.14;41.64;101662.38;144992;576;6002;-74
2021/04/21 06:51:35;;;;;;;13.15;5.18;;;;;;;17.25;41.15;101664.34;144992;669;6002;-75
2021/04/21 06:54:07;;;;;;;9.50;3.90;;;;;;;17.35;42.05;101666.25;144992;609;6002;-74
2021/04/21 06:56:35;;;;;;;6.22;2.87;;;;;;;17.36;41.73;101670.66;144992;610;6002;-74
2021/04/21 06:59:04;;;;;;;6.72;3.17;;;;;;;17.54;41.50;101672.69;144992;596;6002;-75
2021/04/21 07:01:31;;;;;;;12.05;6.20;;;;;;;17.60;38.96;101667.53;144992;609;6002;-74
2021/04/21 07:04:14;;;;;;;11.30;5.80;;;;;;;17.56;40.63;101678.84;144992;575;6002;-76
2021/04/21 07:06:42;;;;;;;13.82;8.13;;;;;;;17.54;36.84;101677.94;144993;578;6002;-73
2021/04/21 07:09:22;;;;;;;20.10;11.35;;;;;;;17.43;38.53;101676.88;144993;587;6002;-75
2021/04/21 07:11:57;;;;;;;17.65;9.00;;;;;;;17.49;38.30;101684.84;144993;566;6002;-74
2021/04/21 07:14:26;;;;;;;7.35;3.90;;;;;;;17.60;37.77;101691.16;144993;569;6002;-74
2021/04/21 07:16:55;;;;;;;11.75;6.22;;;;;;;17.72;36.14;101683.50;144993;614;6002;-76
2021/04/21 07:19:26;;;;;;;15.82;5.18;;;;;;;17.88;40.20;101694.25;144993;586;6002;-73
2021/04/21 07:21:54;;;;;;;5.87;3.90;;;;;;;18.01;39.23;101690.06;144993;587;6002;-77
2021/04/21 07:24:33;;;;;;;4.97;2.70;;;;;;;17.93;34.14;101690.84;144993;625;6002;-72
2021/04/21 07:27:08;;;;;;;6.50;2.70;;;;;;;18.09;39.00;101693.69;144993;579;6002;-74
2021/04/21 07:29:37;;;;;;;6.47;2.80;;;;;;;18.01;36.90;101687.41;144993;660;6002;-74
2021/04/21 07:32:21;;;;;;;6.85;2.53;;;;;;;18.05;35.89;101689.25;144993;637;6002;-74
2021/04/21 07:35:01;;;;;;;3.80;2.60;;;;;;;18.03;34.18;101689.22;144993;741;6002;-75
2021/04/21 07:37:55;;;;;;;3.90;1.90;;;;;;;18.28;35.34;101698.34;144992;583;6002;-74
2021/04/21 07:40:37;;;;;;;8.88;2.12;;;;;;;18.43;37.76;101700.28;144992;658;6000;-74
2021/04/21 07:43:15;;;;;;;4.30;1.55;;;;;;;18.54;36.00;101699.53;144992;687;6000;-73
2021/04/21 07:45:56;;;;;;;4.40;1.90;;;;;;;18.54;35.40;101687.28;144992;634;6000;-75
2021/04/21 07:48:39;;;;;;;4.37;2.10;;;;;;;18.72;34.47;101689.22;144992;622;6000;-73
2021/04/21 07:51:37;;;;;;;6.78;3.47;;;;;;;18.90;38.10;101696.50;144993;637;6000;-74
2021/04/21 07:54:07;;;;;;;12.37;5.70;;;;;;;19.08;36.26;101687.91;144993;655;6000;-72
2021/04/21 07:56:51;;;;;;;3.55;1.75;;;;;;;19.09;34.78;101692.31;144993;572;6002;-74
2021/04/21 07:59:31;;;;;;;2.80;1.80;;;;;;;19.27;36.38;101688.97;144993;707;6002;-74
2021/04/21 08:02:15;;;;;;;4.47;1.70;;;;;;;19.32;36.67;101694.28;144993;601;6002;-75
2021/04/21 08:05:03;;;;;;;2.37;1.75;;;;;;;19.40;36.25;101693.47;144993;563;6002;-74
2021/04/21 08:07:41;;;;;;;8.18;1.80;;;;;;;19.53;36.01;101697.06;144993;578;6000;-72
2021/04/21 08:10:28;;;;;;;4.62;1.67;;;;;;;19.48;35.02;101685.63;144993;606;6002;-73
2021/04/21 08:12:59;;;;;;;4.00;1.60;;;;;;;19.39;33.05;101686.44;144993;595;6000;-73
2021/04/21 08:15:28;;;;;;;4.32;1.87;;;;;;;19.51;32.88;101687.41;144993;577;6002;-73
2021/04/21 08:18:12;;;;;;;3.08;1.60;;;;;;;19.55;35.20;101687.47;144993;672;6002;-73
2021/04/21 08:20:51;;;;;;;2.17;1.90;;;;;;;19.64;33.32;101683.12;144993;577;6002;-75
2021/04/21 08:23:19;;;;;;;25.85;2.53;;;;;;;19.63;31.60;101692.78;144993;577;6002;-73
2021/04/21 08:25:46;;;;;;;15.73;2.47;;;;;;;19.58;31.34;101687.50;144993;574;6002;-73
2021/04/21 08:28:14;;;;;;;13.38;2.75;;;;;;;19.72;32.01;101687.56;144993;644;6002;-73
2021/04/21 08:30:53;;;;;;;3.12;1.90;;;;;;;19.84;32.68;101692.09;144993;578;6002;-74
2021/04/21 08:33:20;;;;;;;4.62;2.00;;;;;;;19.99;33.66;101693.94;144993;603;6002;-75
2021/04/21 08:35:46;;;;;;;3.10;1.85;;;;;;;19.87;31.80;101694.75;144993;565;6002;-76
2021/04/21 08:38:13;;;;;;;3.22;1.65;;;;;;;19.89;31.48;101693.00;144993;623;6002;-74
2021/04/21 08:40:40;;;;;;;2.30;1.55;;;;;;;20.06;31.53;101695.75;144993;599;6002;-74
2021/04/21 08:43:08;;;;;;;1.90;1.65;;;;;;;19.95;30.37;101681.63;144993;585;6002;-75
2021/04/21 08:45:36;;;;;;;1.52;1.40;;;;;;;19.99;30.57;101690.44;144994;581;5002;-73
2021/04/21 08:48:05;;;;;;;2.10;1.50;;;;;;;20.00;30.69;101689.56;144994;602;5002;-74
2021/04/21 08:50:37;;;;;;;3.92;1.90;;;;;;;20.18;33.47;101689.66;144994;618;5002;-75
2021/04/21 08:53:09;;;;;;;4.05;1.70;;;;;;;20.12;30.58;101685.25;144994;596;5002;-73
2021/04/21 08:55:37;;;;;;;1.62;1.20;;;;;;;20.13;31.68;101686.12;144994;570;5002;-75
2021/04/21 08:58:05;;;;;;;2.70;2.00;;;;;;;20.22;30.58;101678.25;144994;594;5002;-73
2021/04/21 09:00:31;;;;;;;6.37;3.80;;;;;;;20.34;30.57;101680.06;144994;590;5002;-74
2021/04/21 09:03:01;;;;;;;7.87;5.15;;;;;;;20.35;30.42;101667.78;144994;635;5002;-74
2021/04/21 09:05:28;;;;;;;6.50;3.35;;;;;;;20.44;30.82;101675.72;144994;631;5002;-73
2021/04/21 09:07:56;;;;;;;14.10;5.32;;;;;;;20.57;30.52;101669.62;144994;587;5002;-76
2021/04/21 09:10:22;;;;;;;14.90;8.43;;;;;;;20.44;30.22;101665.16;144994;592;5002;-73
2021/04/21 09:12:49;;;;;;;21.90;8.20;;;;;;;20.37;30.47;101668.66;144994;653;5002;-73
2021/04/21 09:15:17;;;;;;;8.43;2.83;;;;;;;20.46;29.01;101664.31;144994;585;5002;-73
2021/04/21 09:17:48;;;;;;;4.87;1.80;;;;;;;20.38;30.72;101658.13;144994;617;5002;-75
2021/04/21 09:20:18;;;;;;;4.62;2.08;;;;;;;20.42;29.58;101659.00;144994;662;5002;-73
2021/04/21 09:23:18;;;;;;;5.60;3.60;;;;;;;20.30;29.21;101654.59;144994;574;5002;-74
2021/04/21 09:25:51;;;;;;;12.93;6.07;;;;;;;20.33;29.21;101651.97;144994;618;5002;-73
2021/04/21 09:28:21;;;;;;;15.75;9.02;;;;;;;20.46;29.26;101652.88;144994;573;5002;-75
2021/04/21 09:30:59;;;;;;;14.48;8.88;;;;;;;20.57;28.75;101651.16;144994;585;5002;-74
2021/04/21 09:33:30;;;;;;;8.13;5.22;;;;;;;20.56;28.19;101644.13;144994;586;5002;-73
2021/04/21 09:35:57;;;;;;;10.27;5.80;;;;;;;20.70;29.18;101643.31;144994;665;5002;-73
2021/04/21 09:38:26;;;;;;;15.63;8.30;;;;;;;20.83;28.68;101650.37;144994;579;5002;-73
2021/04/21 09:40:55;;;;;;;23.12;12.23;;;;;;;20.93;28.03;101636.31;144994;601;5002;-74
2021/04/21 09:43:30;;;;;;;10.15;5.10;;;;;;;20.90;27.84;101638.06;144994;586;5002;-74
2021/04/21 09:46:12;;;;;;;24.55;10.07;;;;;;;20.88;27.18;101630.16;144994;576;5002;-75
2021/04/21 09:48:39;;;;;;;32.55;10.23;;;;;;;20.91;27.61;101629.28;144994;570;5002;-72
2021/04/21 09:51:12;;;;;;;26.52;11.60;;;;;;;21.01;27.49;101633.69;144994;599;5002;-74
2021/04/21 09:53:41;;;;;;;20.25;4.82;;;;;;;20.95;27.39;101637.22;144994;639;5002;-75
2021/04/21 09:56:28;;;;;;;16.62;3.80;;;;;;;21.02;27.12;101635.44;144994;637;5002;-74
2021/04/21 09:58:56;;;;;;;9.90;2.45;;;;;;;21.02;28.07;101632.81;144994;587;5004;-74
2021/04/21 10:01:36;;;;;;;7.75;2.10;;;;;;;21.06;26.87;101631.06;144994;613;5004;-74
2021/04/21 10:04:25;;;;;;;5.90;1.83;;;;;;;21.03;26.99;101629.31;144994;587;5004;-74
2021/04/21 10:06:59;;;;;;;3.78;2.28;;;;;;;21.16;27.80;101635.47;144994;577;5017;-75
2021/04/21 10:09:36;;;;;;;;;;;;;;;21.28;27.63;101637.22;144998;911;5002;-74
2021/04/21 10:12:29;;;;;;;4.40;1.83;;;;;;;21.29;28.10;101634.59;144998;639;5002;-75
2021/04/21 10:15:12;;;;;;;5.75;2.30;;;;;;;21.39;28.67;101635.44;144994;613;5002;-75
2021/04/21 10:17:45;;;;;;;3.67;2.00;;;;;;;21.38;28.29;101631.94;144994;709;5002;-76
2021/04/21 10:20:18;;;;;;;3.85;1.55;;;;;;;21.41;28.64;101628.41;144994;573;5002;-75
2021/04/21 10:22:46;;;;;;;5.65;2.67;;;;;;;21.50;28.07;101625.78;144994;565;5002;-75
2021/04/21 10:25:14;;;;;;;2.22;1.70;;;;;;;21.60;27.29;101617.84;144994;627;5002;-75
2021/04/21 10:27:42;;;;;;;1.60;1.20;;;;;;;21.54;27.38;101619.63;144994;699;5002;-74
2021/04/21 10:30:10;;;;;;;2.33;1.60;;;;;;;21.45;27.68;101618.75;144994;624;5002;-74
2021/04/21 10:32:37;;;;;;;2.55;1.67;;;;;;;21.59;28.42;101609.06;144994;583;5002;-76
2021/04/21 10:35:05;;;;;;;4.32;1.70;;;;;;;21.63;28.62;101610.78;211447;67;232254;-73
2021/04/21 10:37:36;;;;;;;6.25;1.67;;;;;;;21.23;27.83;101620.50;144994;624;5007;-75
2021/04/21 10:40:05;;;;;;;3.47;1.65;;;;;;;21.19;27.83;101617.00;144994;634;5006;-75
2021/04/21 10:42:47;;;;;;;5.72;1.90;;;;;;;21.23;28.66;101608.19;144994;567;5006;-75
2021/04/21 10:45:16;;;;;;;2.70;1.70;;;;;;;20.99;28.72;101598.50;144994;562;5006;-76
2021/04/21 10:47:45;;;;;;;2.75;2.00;;;;;;;21.11;28.92;101600.25;144994;569;5006;-77
2021/04/21 10:50:12;;;;;;;3.50;1.87;;;;;;;21.31;28.96;101601.12;144994;612;5006;-74
2021/04/21 10:52:41;;;;;;;2.90;1.25;;;;;;;21.40;28.63;101599.37;144994;587;5006;-74
2021/04/21 10:55:37;;;;;;;3.05;1.37;;;;;;;21.55;27.38;101597.62;144994;630;5006;-74
2021/04/21 10:58:08;;;;;;;2.37;1.33;;;;;;;21.37;27.37;101597.62;144994;644;5004;-75
2021/04/21 11:00:38;;;;;;;1.83;1.20;;;;;;;21.35;27.88;101589.69;144994;565;5004;-75
2021/04/21 11:03:19;;;;;;;3.67;1.60;;;;;;;21.31;28.32;101577.34;144994;638;5004;-74
2021/04/21 11:05:48;;;;;;;2.60;1.30;;;;;;;21.23;28.52;101597.62;144994;590;5004;-76
2021/04/21 11:08:20;;;;;;;1.42;1.15;;;;;;;21.32;28.16;101583.53;144994;564;5004;-74
2021/04/21 11:11:01;;;;;;;4.93;2.60;;;;;;;21.48;28.66;101585.31;144994;612;5004;-73
2021/04/21 11:13:47;;;;;;;4.18;1.65;;;;;;;21.55;27.56;101588.81;144994;569;5002;-75
2021/04/21 11:16:43;;;;;;;2.65;1.48;;;;;;;21.58;27.29;101586.16;144994;617;5004;-75
2021/04/21 11:19:42;;;;;;;3.55;1.27;;;;;;;21.51;27.09;101590.59;144994;666;5002;-74
2021/04/21 11:22:40;;;;;;;2.37;1.00;;;;;;;21.72;27.62;101580.84;144994;608;5004;-74
2021/04/21 11:25:23;;;;;;;1.42;1.00;;;;;;;21.68;26.98;101580.00;144994;563;5002;-75
2021/04/21 11:27:52;;;;;;;2.95;1.90;;;;;;;21.71;26.86;101571.16;144994;659;5002;-75
2021/04/21 11:30:54;;;;;;;1.80;1.30;;;;;;;21.69;26.68;101576.44;144994;564;5002;-76
2021/04/21 11:34:07;;;;;;;3.35;1.37;;;;;;;21.61;27.10;101567.66;144993;685;5004;-74
2021/04/21 11:36:56;;;;;;;2.87;1.40;;;;;;;21.62;26.91;101566.78;144994;564;5002;-75
2021/04/21 11:40:02;;;;;;;4.00;1.70;;;;;;;21.67;26.77;101565.00;144994;644;5002;-75
2021/04/21 11:42:33;;;;;;;;;;;;;;;21.74;27.75;101565.84;144998;909;5004;-75
2021/04/21 11:45:06;;;;;;;1.90;1.33;;;;;;;21.57;27.26;101563.28;144998;664;5000;-76
2021/04/21 11:47:45;;;;;;;1.58;1.08;;;;;;;21.53;27.63;101557.09;144994;669;5004;-75
2021/04/21 11:50:41;;;;;;;3.62;2.50;;;;;;;21.52;26.78;101555.37;144994;570;5004;-76
2021/04/21 11:53:22;;;;;;;2.42;1.37;;;;;;;21.55;26.05;101555.37;144994;596;5002;-78
2021/04/21 11:55:59;;;;;;;2.28;1.20;;;;;;;21.63;25.79;101546.53;144994;641;5002;-81
2021/04/21 11:58:31;;;;;;;2.70;1.00;;;;;;;21.55;25.63;101550.09;144994;565;5002;-78
2021/04/21 12:01:02;;;;;;;1.90;1.30;;;;;;;21.64;25.99;101543.88;144994;581;5002;-78
2021/04/21 12:03:44;;;;;;;4.03;2.05;;;;;;;21.67;26.04;101533.28;144994;601;5002;-77
2021/04/21 12:06:16;;;;;;;1.37;0.95;;;;;;;21.70;25.80;101530.66;144993;625;5002;-78
2021/04/21 12:08:46;;;;;;;2.17;1.08;;;;;;;21.74;25.74;101532.37;144994;637;5002;-81
2021/04/21 12:11:16;;;;;;;1.87;1.35;;;;;;;21.91;26.81;101534.09;144994;603;5002;-80
2021/04/21 12:13:44;;;;;;;2.87;0.98;;;;;;;21.83;29.47;101549.09;144994;619;5002;-80
2021/04/21 12:16:22;;;;;;;4.18;1.40;;;;;;;21.95;30.17;101554.31;144993;585;5002;-79
2021/04/21 12:18:57;;;;;;;2.25;1.30;;;;;;;21.77;32.67;101557.06;144994;582;5002;-78
2021/04/21 12:21:32;;;;;;;3.03;1.98;;;;;;;21.56;32.55;101546.53;144993;655;5003;-77
2021/04/21 12:24:03;;;;;;;18.55;10.50;;;;;;;21.18;34.03;101560.66;144994;612;5002;-78
2021/04/21 12:26:36;;;;;;;3.28;1.20;;;;;;;20.89;33.95;101546.59;144994;595;5002;-77